< Typhoon 198625 1986 Season Typhoon 198627 >
Typhoon 198626 (KIM)
General InformationTrack Information on Google MapsDetailed Wind InformationList of All Images || Disaster Info.ResourceGoogle EarthGE AnimationAtom FeedGeoJSON
Detalied Best Track (Time Zone = UTC)
Year Month Day Hour Lat. Long. Pressure (hPa) Wind (kt) Class Image Chart
1986 11 27 00 7.0 169.5 1006 0 2 Image Chart
1986 11 27 06 7.0 168.2 1004 0 2 Image Chart
1986 11 27 12 7.0 166.8 1004 0 2 Image Chart
1986 11 27 18 7.1 165.5 1002 0 2 Image Chart
1986 11 28 00 7.5 164.2 1000 0 2 Image Chart
1986 11 28 06 7.9 162.9 998 35 3 Image Chart
1986 11 28 12 8.4 161.8 996 40 3 Image Chart
1986 11 28 18 8.9 160.6 994 40 3 Image Chart
1986 11 29 00 9.1 159.5 985 55 4 Image Chart
1986 11 29 06 9.2 158.4 970 65 5 Image Chart
1986 11 29 12 9.4 157.3 965 70 5 Image Chart
1986 11 29 18 9.7 156.6 965 65 5 Image Chart
1986 11 30 00 10.1 155.9 960 75 5 Image Chart
1986 11 30 06 10.7 155.1 965 75 5 Image Chart
1986 11 30 12 11.3 154.3 975 80 5 Image Chart
1986 11 30 18 12.2 153.5 965 80 5 Image Chart
1986 12 1 00 13.2 152.9 960 80 5 Image Chart
1986 12 1 06 14.1 152.1 945 80 5 Image Chart
1986 12 1 12 14.7 151.4 930 90 5 Image Chart
1986 12 1 18 15.2 150.6 925 100 5 Image Chart
1986 12 2 00 15.4 149.8 920 100 5 Image Chart
1986 12 2 06 15.6 149.1 920 100 5 Image Chart
1986 12 2 12 15.6 148.4 910 105 5 Image Chart
1986 12 2 18 15.5 147.6 905 105 5 Image Chart
1986 12 3 00 15.5 146.6 910 105 5 Image Chart
1986 12 3 06 15.5 145.3 925 110 5 Image Chart
1986 12 3 12 15.6 144.1 930 110 5 Image Chart
1986 12 3 18 15.7 143.0 925 110 5 Image Chart
1986 12 4 00 15.9 141.9 920 100 5 Image Chart
1986 12 4 06 16.2 141.3 920 100 5 Image Chart
1986 12 4 12 16.5 140.7 920 100 5 Image Chart
1986 12 4 18 17.0 140.6 930 95 5 Image Chart
1986 12 5 00 17.3 140.3 940 90 5 Image Chart
1986 12 5 06 17.4 140.0 950 90 5 Image Chart
1986 12 5 12 17.4 139.6 955 80 5 Image Chart
1986 12 5 18 17.2 139.2 960 75 5 Image Chart
1986 12 6 00 17.2 138.0 965 70 5 Image Chart
1986 12 6 06 17.4 137.2 965 70 5 Image Chart
1986 12 6 12 17.1 136.0 955 80 5 Image Chart
1986 12 6 18 17.2 135.2 945 80 5 Image Chart
1986 12 7 00 17.3 134.2 940 85 5 Image Chart
1986 12 7 06 17.3 133.5 945 90 5 Image Chart
1986 12 7 12 17.2 132.9 955 85 5 Image Chart
1986 12 7 18 17.0 132.8 965 80 5 Image Chart
1986 12 8 00 16.7 132.7 970 65 5 Image Chart
1986 12 8 06 16.3 132.3 975 65 5 Image Chart
1986 12 8 12 16.1 132.4 980 60 4 Image Chart
1986 12 8 18 16.0 132.5 980 60 4 Image Chart
1986 12 9 00 16.0 132.5 980 60 4 Image Chart
1986 12 9 06 16.2 132.6 980 60 4 Image Chart
1986 12 9 12 16.4 132.3 985 60 4 Image Chart
1986 12 9 18 16.6 132.1 990 50 4 Image Chart
1986 12 10 00 16.6 132.0 992 50 4 Image Chart
1986 12 10 06 16.9 131.8 994 50 4 Image Chart
1986 12 10 12 17.2 131.6 996 50 4 Image Chart
1986 12 10 18 17.5 131.4 1000 45 3 Image Chart
1986 12 11 00 17.9 131.2 1004 40 3 Image Chart
1986 12 11 06 18.3 130.7 1004 0 2 Image Chart
1986 12 11 12 18.6 130.2 1004 0 2 Image Chart
1986 12 11 18 19.0 129.5 1006 0 2 Image Chart
1986 12 12 00 19.5 128.5 1006 0 2 Image Chart
1986 12 12 06 20.0 127.5 1008 0 2 Image Chart
1986 12 12 12 20.6 126.5 1008 0 2 Image Chart
1986 12 12 18 21.5 125.5 1010 0 2 Image Chart
1986 12 13 00 23.5 125.0 1010 0 2 Image Chart
1986 12 13 06 25.5 125.5 1012 0 2 Image Chart
Japan Meteorological Agency Best Track Data | Correction Date : 1992-10-21
< Typhoon 198625 1986 Season Typhoon 198627 >

Help